createdAt,value
2022-09-10T04:00:54.382Z,69.16
2022-09-10T04:03:26.560Z,69.22
2022-09-10T04:05:55.476Z,69.16
2022-09-10T04:08:24.674Z,69.45
2022-09-10T04:10:57.440Z,69.29
2022-09-10T04:13:26.920Z,69.34
2022-09-10T04:15:56.460Z,69.45
2022-09-10T04:18:27.027Z,69.48
2022-09-10T04:20:56.598Z,69.55
2022-09-10T04:23:25.493Z,69.48
2022-09-10T04:25:54.574Z,69.47
2022-09-10T04:28:24.445Z,69.52
2022-09-10T04:30:53.186Z,69.49
2022-09-10T04:33:28.724Z,69.49
2022-09-10T04:36:00.893Z,69.57
2022-09-10T04:38:30.795Z,69.47
2022-09-10T04:41:03.584Z,69.56
2022-09-10T04:43:32.022Z,69.56
2022-09-10T04:46:01.790Z,69.59
2022-09-10T04:48:34.091Z,69.56
2022-09-10T04:51:16.184Z,69.57
2022-09-10T04:53:49.697Z,69.76
2022-09-10T04:56:18.871Z,69.67
2022-09-10T04:58:48.811Z,69.63
2022-09-10T05:01:17.796Z,69.65
2022-09-10T05:03:48.117Z,69.68
2022-09-10T05:06:16.966Z,69.72
2022-09-10T05:08:49.352Z,69.66
2022-09-10T05:11:22.361Z,69.69
2022-09-10T05:13:51.108Z,69.68
2022-09-10T05:16:22.745Z,69.64
2022-09-10T05:18:51.216Z,69.66
2022-09-10T05:21:20.226Z,69.66
2022-09-10T05:23:48.847Z,69.80
2022-09-10T05:26:17.175Z,69.83
2022-09-10T05:28:45.613Z,69.84
2022-09-10T05:31:17.607Z,69.75
2022-09-10T05:33:47.157Z,69.85
2022-09-10T05:36:15.729Z,69.71
2022-09-10T05:38:46.626Z,69.77
2022-09-10T05:41:16.960Z,69.83
2022-09-10T05:43:49.517Z,69.88
2022-09-10T05:46:18.613Z,69.90
2022-09-10T05:48:54.781Z,69.82
2022-09-10T05:51:28.491Z,69.73
2022-09-10T05:53:58.916Z,69.81
2022-09-10T05:56:27.991Z,69.89
2022-09-10T05:58:58.419Z,69.94
2022-09-10T06:01:30.375Z,69.93
2022-09-10T06:04:00.145Z,69.82
2022-09-10T06:06:28.619Z,69.86
2022-09-10T06:09:02.947Z,69.94
2022-09-10T06:11:49.983Z,69.88
2022-09-10T06:14:20.554Z,69.91
2022-09-10T06:16:50.215Z,69.87
2022-09-10T06:19:20.067Z,69.78
2022-09-10T06:21:51.097Z,69.76
2022-09-10T06:24:23.707Z,69.77
2022-09-10T06:26:55.683Z,69.69
2022-09-10T06:29:25.586Z,69.94
2022-09-10T06:31:54.031Z,69.90
2022-09-10T06:34:22.580Z,69.83
2022-09-10T06:36:51.183Z,69.83
2022-09-10T06:39:19.871Z,70.04
2022-09-10T06:41:51.885Z,69.94
2022-09-10T06:44:53.648Z,69.87
2022-09-10T06:48:32.766Z,69.95
2022-09-10T06:50:51.184Z,70.01
2022-09-10T06:53:22.561Z,70.16
2022-09-10T06:55:55.670Z,70.08
2022-09-10T06:58:24.965Z,69.90
2022-09-10T07:00:53.801Z,69.66
2022-09-10T07:03:24.466Z,69.82
2022-09-10T07:05:56.200Z,69.86
2022-09-10T07:08:28.813Z,69.69
2022-09-10T07:11:05.255Z,69.64
2022-09-10T07:13:35.729Z,69.82
2022-09-10T07:16:05.786Z,69.72
2022-09-10T07:18:36.398Z,69.55
2022-09-10T07:21:14.398Z,69.75
2022-09-10T07:23:48.885Z,69.66
2022-09-10T07:26:22.109Z,69.73
2022-09-10T07:28:52.659Z,69.38
2022-09-10T07:31:29.230Z,69.61
2022-09-10T07:34:02.782Z,69.59
2022-09-10T07:36:32.441Z,69.64
2022-09-10T07:39:02.209Z,69.61
2022-09-10T07:41:36.157Z,69.47
2022-09-10T07:44:08.915Z,69.80
2022-09-10T07:46:41.417Z,69.68
2022-09-10T07:49:13.809Z,69.61
2022-09-10T07:51:45.260Z,69.55
2022-09-10T07:54:17.698Z,69.52
2022-09-10T07:56:52.955Z,69.54
2022-09-10T07:59:22.778Z,69.51
2022-09-10T08:02:06.878Z,69.65
2022-09-10T08:04:38.853Z,69.55
2022-09-10T08:07:11.505Z,69.52
2022-09-10T08:09:43.555Z,69.48
2022-09-10T08:12:18.133Z,69.12
2022-09-10T08:14:48.325Z,69.10
2022-09-10T08:17:17.998Z,69.35
2022-09-10T08:19:47.348Z,69.42
2022-09-10T08:22:16.903Z,69.46
2022-09-10T08:24:50.623Z,69.24
2022-09-10T08:27:19.535Z,69.06
2022-09-10T08:29:49.210Z,69.18
2022-09-10T08:32:17.994Z,69.19
2022-09-10T08:34:46.780Z,69.55
2022-09-10T08:37:17.298Z,69.40
2022-09-10T08:39:45.837Z,69.33
2022-09-10T08:42:43.297Z,69.25
2022-09-10T08:45:28.020Z,69.04
2022-09-10T08:48:03.314Z,69.10
2022-09-10T08:50:52.908Z,69.21
2022-09-10T08:53:42.627Z,69.32
2022-09-10T08:56:17.000Z,69.16
2022-09-10T08:59:11.532Z,69.13
2022-09-10T09:01:53.694Z,69.22
2022-09-10T09:04:44.325Z,69.04
2022-09-10T09:07:15.845Z,69.10
2022-09-10T09:09:50.543Z,69.23
2022-09-10T09:12:19.293Z,69.11
2022-09-10T09:15:18.017Z,69.26
2022-09-10T09:17:52.063Z,69.20
2022-09-10T09:20:39.680Z,69.12
2022-09-10T09:23:23.404Z,69.03
2022-09-10T09:26:03.021Z,69.09
2022-09-10T09:28:52.031Z,69.09
2022-09-10T09:31:33.511Z,68.96
2022-09-10T09:34:22.735Z,69.15
2022-09-10T09:36:54.612Z,69.00
2022-09-10T09:39:48.815Z,69.27
2022-09-10T09:42:50.156Z,69.05
2022-09-10T09:45:28.916Z,68.93
2022-09-10T09:47:59.540Z,68.85
2022-09-10T09:50:32.069Z,69.05
2022-09-10T09:53:01.283Z,68.89
2022-09-10T09:55:38.297Z,69.06
2022-09-10T09:58:43.013Z,69.12
2022-09-10T10:01:22.529Z,68.98
2022-09-10T10:04:01.611Z,69.00
2022-09-10T10:06:35.133Z,68.93
2022-09-10T10:09:08.187Z,69.08
2022-09-10T10:11:46.338Z,69.20
2022-09-10T10:14:24.532Z,69.03
2022-09-10T10:17:00.023Z,69.03
2022-09-10T10:19:33.040Z,68.91
2022-09-10T10:22:21.074Z,68.85
2022-09-10T10:24:52.288Z,68.78
2022-09-10T10:27:27.556Z,68.85
2022-09-10T10:30:01.177Z,68.89
2022-09-10T10:32:56.891Z,68.69
2022-09-10T10:35:35.588Z,68.86
2022-09-10T10:38:33.537Z,68.85
2022-09-10T10:41:08.331Z,68.49
2022-09-10T10:43:46.253Z,68.64
2022-09-10T10:46:22.335Z,68.72
2022-09-10T10:49:04.166Z,68.71
2022-09-10T10:51:43.970Z,68.73
2022-09-10T10:54:42.211Z,68.60
2022-09-10T10:57:35.669Z,68.56
2022-09-10T11:00:10.986Z,68.48
2022-09-10T11:02:55.380Z,68.67
2022-09-10T11:05:39.984Z,68.57
2022-09-10T11:08:17.707Z,68.42
2022-09-10T11:11:04.315Z,68.73
2022-09-10T11:13:45.046Z,68.72
2022-09-10T11:16:17.377Z,68.52
2022-09-10T11:18:55.156Z,68.73
2022-09-10T11:22:12.282Z,68.53
2022-09-10T11:24:48.619Z,68.54
2022-09-10T11:27:28.679Z,68.55
2022-09-10T11:30:12.883Z,68.46
2022-09-10T11:32:50.955Z,68.39
2022-09-10T11:35:33.542Z,68.53
2022-09-10T11:38:02.560Z,68.67
2022-09-10T11:40:52.838Z,68.71
2022-09-10T11:43:38.045Z,68.63
2022-09-10T11:46:22.810Z,68.71
2022-09-10T11:49:08.674Z,68.62
2022-09-10T11:51:39.638Z,68.62
2022-09-10T11:54:16.664Z,68.67
2022-09-10T11:57:02.112Z,68.63
2022-09-10T11:59:50.322Z,68.44
2022-09-10T12:02:58.140Z,68.80
2022-09-10T12:05:54.018Z,68.64
2022-09-10T12:08:35.374Z,68.76
2022-09-10T12:11:20.259Z,68.76
2022-09-10T12:13:53.384Z,68.81
2022-09-10T12:16:58.280Z,68.72
2022-09-10T12:19:46.911Z,68.70
2022-09-10T12:22:37.834Z,68.53
2022-09-10T12:25:33.574Z,68.47
2022-09-10T12:28:08.577Z,68.50
2022-09-10T12:30:37.728Z,68.61
2022-09-10T12:33:13.141Z,68.61
2022-09-10T12:35:50.182Z,68.73
2022-09-10T12:38:48.940Z,68.69
2022-09-10T12:41:23.915Z,68.50
2022-09-10T12:44:29.142Z,68.56
2022-09-10T12:47:18.047Z,68.69
2022-09-10T12:50:01.336Z,68.51
2022-09-10T12:52:32.064Z,68.22
2022-09-10T12:55:30.044Z,68.35
2022-09-10T12:58:13.303Z,68.50
2022-09-10T13:00:55.695Z,68.42
2022-09-10T13:03:29.515Z,68.47
2022-09-10T13:06:02.413Z,68.52
2022-09-10T13:08:42.082Z,68.57
2022-09-10T13:11:23.378Z,68.53
2022-09-10T13:14:02.894Z,68.66
2022-09-10T13:16:31.760Z,68.66
2022-09-10T13:19:19.712Z,68.83
2022-09-10T13:21:48.678Z,68.72
2022-09-10T13:24:36.482Z,68.53
2022-09-10T13:27:35.393Z,68.59
2022-09-10T13:30:22.707Z,68.77
2022-09-10T13:32:57.203Z,68.81
2022-09-10T13:35:50.536Z,68.77
2022-09-10T13:38:54.538Z,68.52
2022-09-10T13:41:43.389Z,68.68
2022-09-10T13:44:37.796Z,68.54
2022-09-10T13:47:26.468Z,68.74
2022-09-10T13:50:00.964Z,68.75
2022-09-10T13:52:35.691Z,68.87
2022-09-10T13:55:08.574Z,68.80
2022-09-10T13:57:49.284Z,68.79
2022-09-10T14:00:17.423Z,68.71
2022-09-10T14:02:48.793Z,68.70
2022-09-10T14:05:38.247Z,68.91
2022-09-10T14:08:19.284Z,68.95
2022-09-10T14:10:49.716Z,69.13
2022-09-10T14:13:23.904Z,68.95
2022-09-10T14:15:54.919Z,68.85
2022-09-10T14:18:32.180Z,68.88
2022-09-10T14:21:00.893Z,68.94
2022-09-10T14:23:30.011Z,68.82
2022-09-10T14:26:37.096Z,68.92
2022-09-10T14:29:25.677Z,69.00
2022-09-10T14:31:54.680Z,69.11
2022-09-10T14:34:38.260Z,68.75
2022-09-10T14:37:38.862Z,68.91
2022-09-10T14:40:18.943Z,69.08
2022-09-10T14:42:50.100Z,69.12
2022-09-10T14:45:43.483Z,69.06
2022-09-10T14:48:39.169Z,68.93
2022-09-10T14:51:15.934Z,68.99
2022-09-10T14:53:47.026Z,68.89
2022-09-10T14:56:31.588Z,68.83
2022-09-10T14:59:02.562Z,68.89
2022-09-10T15:01:32.396Z,69.03
2022-09-10T15:04:01.423Z,69.11
2022-09-10T15:06:32.136Z,69.21
2022-09-10T15:09:02.015Z,69.14
2022-09-10T15:11:31.462Z,69.07
2022-09-10T15:14:01.090Z,69.19
2022-09-10T15:16:30.122Z,68.99
2022-09-10T15:18:59.212Z,69.10
2022-09-10T15:21:31.855Z,68.97
2022-09-10T15:24:00.723Z,69.12
2022-09-10T15:26:29.990Z,69.20
2022-09-10T15:28:59.587Z,69.06
2022-09-10T15:31:32.490Z,69.05
2022-09-10T15:34:03.336Z,69.25
2022-09-10T15:36:33.736Z,69.18
2022-09-10T15:39:04.281Z,69.34
2022-09-10T15:41:33.421Z,69.27
2022-09-10T15:44:03.817Z,69.22
2022-09-10T15:46:32.636Z,69.19
2022-09-10T15:49:04.850Z,69.14
2022-09-10T15:51:33.587Z,69.11
2022-09-10T15:54:05.285Z,69.16
2022-09-10T15:56:34.727Z,69.09
2022-09-10T15:59:17.344Z,69.26
2022-09-10T16:01:47.237Z,69.19
2022-09-10T16:04:16.417Z,69.18
2022-09-10T16:06:45.344Z,69.01
2022-09-10T16:09:14.170Z,69.20
2022-09-10T16:11:44.035Z,69.20
2022-09-10T16:14:16.409Z,69.30
2022-09-10T16:16:46.362Z,69.19
2022-09-10T16:19:17.861Z,69.39
2022-09-10T16:21:47.146Z,69.37
2022-09-10T16:24:15.999Z,69.26
2022-09-10T16:26:45.836Z,69.27
2022-09-10T16:29:20.148Z,69.35
2022-09-10T16:31:52.637Z,69.42
2022-09-10T16:34:23.107Z,69.38
2022-09-10T16:36:52.891Z,69.42
2022-09-10T16:39:24.288Z,69.37
2022-09-10T16:41:56.642Z,69.48
2022-09-10T16:44:25.816Z,69.53
2022-09-10T16:46:58.625Z,69.51
2022-09-10T16:49:30.525Z,69.59
2022-09-10T16:51:59.823Z,69.58
2022-09-10T16:54:30.645Z,69.57
2022-09-10T16:56:59.802Z,69.59
2022-09-10T16:59:29.461Z,69.47
2022-09-10T17:02:00.067Z,69.44
2022-09-10T17:04:29.541Z,69.54
2022-09-10T17:07:00.687Z,69.66
2022-09-10T17:09:29.814Z,69.72
2022-09-10T17:11:58.582Z,69.79
2022-09-10T17:14:27.100Z,69.68
2022-09-10T17:16:56.693Z,69.76
2022-09-10T17:19:26.715Z,69.76
2022-09-10T17:21:57.400Z,69.75
2022-09-10T17:24:30.692Z,69.83
2022-09-10T17:27:00.206Z,69.82
2022-09-10T17:29:28.891Z,69.71
2022-09-10T17:31:57.926Z,69.74
2022-09-10T17:34:29.508Z,69.80
2022-09-10T17:36:58.793Z,69.77
2022-09-10T17:39:29.500Z,69.64
2022-09-10T17:41:59.424Z,69.76
2022-09-10T17:44:31.511Z,69.75
2022-09-10T17:47:00.726Z,70.00
2022-09-10T17:49:29.429Z,69.95
2022-09-10T17:51:58.560Z,69.90
2022-09-10T17:54:27.564Z,69.84
2022-09-10T17:56:56.520Z,69.86
2022-09-10T17:59:25.732Z,69.94
2022-09-10T18:01:55.131Z,70.00
2022-09-10T18:04:26.995Z,70.17
2022-09-10T18:06:55.792Z,70.04
2022-09-10T18:09:28.444Z,70.07
2022-09-10T18:11:57.825Z,70.25
2022-09-10T18:14:26.661Z,70.00
2022-09-10T18:16:58.267Z,69.98
2022-09-10T18:19:26.710Z,70.21
2022-09-10T18:21:55.751Z,70.14
2022-09-10T18:24:25.341Z,70.37
2022-09-10T18:26:55.548Z,70.19
2022-09-10T18:29:30.664Z,70.21
2022-09-10T18:32:04.595Z,70.18
2022-09-10T18:34:32.971Z,70.15
2022-09-10T18:37:07.267Z,70.40
2022-09-10T18:39:54.725Z,70.23
2022-09-10T18:42:23.724Z,70.10
2022-09-10T18:44:52.410Z,70.19
2022-09-10T18:47:41.182Z,70.17
2022-09-10T18:50:10.531Z,70.11
2022-09-10T18:52:39.640Z,70.31
2022-09-10T18:55:09.305Z,70.43
2022-09-10T18:57:38.119Z,70.28
2022-09-10T19:00:07.881Z,70.24
2022-09-10T19:02:37.023Z,70.32
2022-09-10T19:05:13.438Z,70.19
2022-09-10T19:08:03.072Z,70.15
2022-09-10T19:10:31.928Z,70.25
2022-09-10T19:13:01.058Z,70.48
2022-09-10T19:15:29.762Z,70.39
2022-09-10T19:17:58.624Z,70.50
2022-09-10T19:20:27.581Z,70.52
2022-09-10T19:22:56.154Z,70.39
2022-09-10T19:25:25.126Z,70.42
2022-09-10T19:27:53.544Z,70.49
2022-09-10T19:30:22.541Z,70.29
2022-09-10T19:32:54.291Z,70.54
2022-09-10T19:35:23.269Z,70.55
2022-09-10T19:37:51.894Z,70.58
2022-09-10T19:40:21.284Z,70.42
2022-09-10T19:42:50.347Z,70.72
2022-09-10T19:45:20.845Z,70.58
2022-09-10T19:47:50.102Z,70.94
2022-09-10T19:50:23.146Z,70.75
2022-09-10T19:52:54.266Z,70.71
2022-09-10T19:55:24.872Z,70.51
2022-09-10T19:57:55.377Z,70.66
2022-09-10T20:00:45.467Z,70.63
2022-09-10T20:03:12.431Z,70.74
2022-09-10T20:05:43.043Z,70.68
2022-09-10T20:08:11.490Z,70.82
2022-09-10T20:10:39.804Z,70.56
2022-09-10T20:13:08.704Z,70.89
2022-09-10T20:15:43.550Z,70.97
2022-09-10T20:18:26.925Z,70.71
2022-09-10T20:21:32.644Z,70.77
2022-09-10T20:24:01.670Z,70.87
2022-09-10T20:26:34.069Z,70.91
2022-09-10T20:29:08.648Z,70.84
2022-09-10T20:31:41.665Z,71.04
2022-09-10T20:34:17.433Z,70.95
2022-09-10T20:36:47.175Z,70.91
2022-09-10T20:39:18.997Z,70.84
2022-09-10T20:41:47.921Z,70.90
2022-09-10T20:44:17.883Z,70.85
2022-09-10T20:46:47.125Z,70.81
2022-09-10T20:49:16.760Z,71.01
2022-09-10T20:51:46.037Z,71.11
2022-09-10T20:54:17.765Z,71.13
2022-09-10T20:56:47.135Z,71.27
2022-09-10T20:59:17.705Z,71.18
2022-09-10T21:01:47.367Z,71.01
2022-09-10T21:04:15.781Z,71.10
2022-09-10T21:06:45.018Z,71.11
2022-09-10T21:09:13.687Z,71.14
2022-09-10T21:11:42.653Z,71.16
2022-09-10T21:14:12.484Z,71.14
2022-09-10T21:16:43.819Z,71.09
2022-09-10T21:19:15.449Z,71.21
2022-09-10T21:21:45.927Z,71.28
2022-09-10T21:24:17.289Z,71.24
2022-09-10T21:26:46.469Z,71.34
2022-09-10T21:29:21.131Z,71.29
2022-09-10T21:31:55.404Z,71.32
2022-09-10T21:34:24.199Z,71.27
2022-09-10T21:36:53.822Z,71.10
2022-09-10T21:39:24.112Z,71.03
2022-09-10T21:41:52.702Z,71.10
2022-09-10T21:44:23.515Z,71.20
2022-09-10T21:46:53.108Z,71.49
2022-09-10T21:49:21.742Z,71.52
2022-09-10T21:51:51.321Z,71.32
2022-09-10T21:54:22.460Z,71.42
2022-09-10T21:56:53.018Z,71.42
2022-09-10T21:59:22.660Z,71.27
2022-09-10T22:01:51.948Z,71.26
2022-09-10T22:04:23.292Z,71.36
2022-09-10T22:06:54.385Z,71.37
2022-09-10T22:09:24.606Z,71.28
2022-09-10T22:11:55.254Z,71.24
2022-09-10T22:14:25.845Z,71.24
2022-09-10T22:16:55.526Z,71.19
2022-09-10T22:19:26.733Z,71.34
2022-09-10T22:21:57.317Z,71.18
2022-09-10T22:24:26.825Z,71.33
2022-09-10T22:26:55.977Z,71.50
2022-09-10T22:29:25.985Z,71.30
2022-09-10T22:31:56.117Z,71.32
2022-09-10T22:34:25.389Z,71.15
2022-09-10T22:36:54.588Z,71.25
2022-09-10T22:39:23.730Z,71.17
2022-09-10T22:41:52.824Z,71.21
2022-09-10T22:44:23.834Z,71.07
2022-09-10T22:46:53.146Z,71.32
2022-09-10T22:49:22.336Z,71.39
2022-09-10T22:51:51.805Z,71.37
2022-09-10T22:54:21.159Z,71.29
2022-09-10T22:56:50.241Z,71.24
2022-09-10T22:59:19.357Z,71.25
2022-09-10T23:01:48.786Z,71.37
2022-09-10T23:04:18.028Z,71.18
2022-09-10T23:06:47.320Z,71.46
2022-09-10T23:09:17.201Z,71.23
2022-09-10T23:11:47.345Z,71.27
2022-09-10T23:14:22.283Z,71.26
2022-09-10T23:16:52.582Z,71.24
2022-09-10T23:19:24.274Z,71.37
2022-09-10T23:21:55.621Z,71.26
2022-09-10T23:24:27.069Z,71.26
2022-09-10T23:26:56.661Z,71.29
2022-09-10T23:29:25.790Z,71.22
2022-09-10T23:31:55.053Z,71.18
2022-09-10T23:34:24.392Z,71.05
2022-09-10T23:36:54.222Z,71.17
2022-09-10T23:39:25.478Z,71.26
2022-09-10T23:41:58.660Z,71.03
2022-09-10T23:44:27.955Z,71.10
2022-09-10T23:46:57.817Z,71.03
2022-09-10T23:49:26.686Z,71.16
2022-09-10T23:51:55.892Z,71.14
2022-09-10T23:54:24.922Z,71.02
2022-09-10T23:56:54.188Z,70.93
2022-09-10T23:59:23.492Z,71.09
